Time;durP1;ratioP1;P1;durP2;ratioP2;P2;SDS_P1;SDS_P2;PMS_P1;PMS_P2;Temp;Humidity;BMP_temperature;BMP_pressure;BME280_temperature;BME280_humidity;BME280_pressure;Samples;Min_cycle;Max_cycle;Signal;HPM_P1;HPM_P2
2022/11/21 00:00:26;;;;;;;29.05;19.85;;;2.50;99.90;;;;;;5115997;28;20521;-78
2022/11/21 00:02:52;;;;;;;29.83;20.48;;;2.50;99.90;;;;;;5115575;28;20047;-79
2022/11/21 00:05:18;;;;;;;28.63;19.73;;;2.50;99.90;;;;;;5116266;28;20494;-78
2022/11/21 00:07:44;;;;;;;28.60;19.57;;;2.50;99.90;;;;;;5116779;28;20502;-78
2022/11/21 00:10:11;;;;;;;26.35;19.08;;;2.60;99.90;;;;;;5115103;28;20544;-78
2022/11/21 00:12:37;;;;;;;26.02;18.42;;;2.60;99.90;;;;;;5115134;28;20471;-78
2022/11/21 00:15:04;;;;;;;29.07;19.80;;;2.70;99.90;;;;;;5115401;28;20053;-79
2022/11/21 00:17:29;;;;;;;27.33;19.38;;;2.70;99.90;;;;;;5114611;28;20313;-79
2022/11/21 00:19:55;;;;;;;26.03;19.03;;;2.70;99.90;;;;;;5116383;28;20494;-78
2022/11/21 00:22:21;;;;;;;26.80;18.87;;;2.70;99.90;;;;;;5114797;28;20059;-78
2022/11/21 00:24:46;;;;;;;25.37;18.77;;;2.70;99.90;;;;;;5114889;28;20040;-78
2022/11/21 00:27:12;;;;;;;26.07;19.20;;;2.70;99.90;;;;;;5115621;28;20090;-78
2022/11/21 00:29:38;;;;;;;26.40;19.03;;;2.70;99.90;;;;;;5116252;28;20475;-78
2022/11/21 00:32:04;;;;;;;28.43;20.13;;;2.70;99.90;;;;;;5116001;28;20043;-78
2022/11/21 00:34:29;;;;;;;27.93;18.60;;;2.70;99.90;;;;;;5115716;28;20483;-78
2022/11/21 00:36:56;;;;;;;24.43;18.53;;;2.70;99.90;;;;;;5098191;28;20116;-78
2022/11/21 00:39:21;;;;;;;27.33;18.55;;;2.60;99.90;;;;;;5115528;27;20047;-78
2022/11/21 00:41:47;;;;;;;26.27;19.10;;;2.70;99.90;;;;;;5115852;28;20047;-78
2022/11/21 00:44:13;;;;;;;27.93;20.27;;;2.80;99.90;;;;;;5115569;27;20055;-78
2022/11/21 00:46:38;;;;;;;25.37;19.33;;;2.70;99.90;;;;;;5114649;28;20087;-78
2022/11/21 00:49:04;;;;;;;27.57;19.90;;;2.70;99.90;;;;;;5115725;28;20498;-78
2022/11/21 00:51:30;;;;;;;26.80;18.60;;;2.70;99.90;;;;;;5115355;28;20039;-78
2022/11/21 00:53:55;;;;;;;28.47;18.03;;;2.70;99.90;;;;;;5115645;28;20058;-78
2022/11/21 00:56:21;;;;;;;27.20;19.20;;;2.70;99.90;;;;;;5114388;28;20043;-78
2022/11/21 00:58:46;;;;;;;26.03;18.67;;;2.70;99.90;;;;;;5115806;28;20039;-78
2022/11/21 01:01:14;;;;;;;28.27;20.70;;;2.70;99.90;;;;;;5114230;28;20494;-78
2022/11/21 01:03:41;;;;;;;26.25;19.55;;;2.70;99.90;;;;;;5115100;28;20491;-78
2022/11/21 01:06:11;;;;;;;26.73;18.20;;;2.70;99.90;;;;;;5115366;28;20055;-78
2022/11/21 01:08:39;;;;;;;28.48;18.15;;;2.70;99.90;;;;;;5115119;28;20047;-78
2022/11/21 01:11:07;;;;;;;25.80;18.25;;;2.70;99.90;;;;;;5115400;28;20044;-78
2022/11/21 01:13:34;;;;;;;25.58;17.30;;;2.70;99.90;;;;;;5114969;28;20048;-78
2022/11/21 01:16:11;;;;;;;26.40;18.42;;;2.80;99.90;;;;;;5113933;28;20043;-78
2022/11/21 01:18:38;;;;;;;26.08;18.75;;;2.80;99.90;;;;;;5114945;28;20047;-78
2022/11/21 01:21:06;;;;;;;28.60;18.40;;;2.90;99.90;;;;;;5115030;28;20122;-78
2022/11/21 01:23:33;;;;;;;24.25;18.25;;;2.80;99.90;;;;;;5114240;28;20562;-79
2022/11/21 01:26:09;;;;;;;26.40;18.52;;;2.80;99.90;;;;;;5096716;28;20054;-79
2022/11/21 01:28:35;;;;;;;27.10;18.23;;;2.80;99.90;;;;;;5114650;28;20051;-78
2022/11/21 01:31:05;;;;;;;27.20;18.73;;;2.90;99.90;;;;;;5115071;28;20043;-78
2022/11/21 01:33:31;;;;;;;28.67;19.42;;;2.90;99.90;;;;;;5114563;28;20180;-78
2022/11/21 01:35:57;;;;;;;24.67;17.90;;;2.90;99.90;;;;;;5114761;28;20460;-78
2022/11/21 01:38:22;;;;;;;27.73;19.43;;;2.90;99.90;;;;;;5113191;28;20285;-78
2022/11/21 01:40:48;;;;;;;24.70;17.70;;;2.80;99.90;;;;;;5113585;28;20113;-78
2022/11/21 01:43:15;;;;;;;28.80;19.60;;;2.90;99.90;;;;;;5114792;28;20048;-78
2022/11/21 01:46:03;;;;;;;27.88;19.52;;;2.90;99.90;;;;;;5096358;28;20052;-78
2022/11/21 01:48:49;;;;;;;26.67;19.52;;;2.90;99.90;;;;;;5114401;28;20071;-78
2022/11/21 01:51:21;;;;;;;27.92;19.70;;;2.90;99.90;;;;;;5113357;28;20043;-79
2022/11/21 01:54:02;;;;;;;26.02;18.42;;;2.90;99.90;;;;;;5114474;28;20047;-78
2022/11/21 01:56:31;;;;;;;28.65;19.42;;;2.90;99.90;;;;;;5114067;28;20043;-78
2022/11/21 01:59:00;;;;;;;28.45;19.75;;;2.90;99.90;;;;;;5114557;28;20073;-78
2022/11/21 02:01:26;;;;;;;30.63;20.48;;;2.80;99.90;;;;;;5113869;28;20040;-78
2022/11/21 02:03:53;;;;;;;30.73;21.83;;;2.90;99.90;;;;;;5113469;28;20535;-78
2022/11/21 02:06:19;;;;;;;26.05;18.92;;;2.80;99.90;;;;;;5114136;28;20491;-78
2022/11/21 02:08:45;;;;;;;26.42;18.98;;;2.80;99.90;;;;;;5112883;28;20142;-78
2022/11/21 02:11:36;;;;;;;26.87;19.67;;;2.80;99.90;;;;;;5114309;28;20523;-77
2022/11/21 02:14:02;;;;;;;29.33;20.33;;;2.80;99.90;;;;;;5114383;28;20043;-78
2022/11/21 02:16:28;;;;;;;27.40;19.20;;;2.70;99.90;;;;;;5095812;28;20043;-78
2022/11/21 02:18:54;;;;;;;28.65;20.65;;;2.70;99.90;;;;;;5113985;28;20130;-78
2022/11/21 02:21:37;;;;;;;28.93;20.20;;;2.70;99.90;;;;;;5114063;28;20123;-78
2022/11/21 02:24:23;;;;;;;27.20;19.63;;;2.70;99.90;;;;;;5113989;28;20486;-78
2022/11/21 02:26:49;;;;;;;;;;;2.60;99.90;;;;;;5114090;28;20051;-79
2022/11/21 02:29:14;;;;;;;;;;;2.70;99.90;;;;;;5113949;28;20325;-78
2022/11/21 02:31:40;;;;;;;29.58;18.70;;;2.60;99.90;;;;;;5113655;28;19926;-78
2022/11/21 02:34:06;;;;;;;25.33;17.70;;;2.60;99.90;;;;;;5094863;28;20069;-78
2022/11/21 02:36:45;;;;;;;28.73;19.10;;;2.60;99.90;;;;;;5113520;28;20047;-78
2022/11/21 02:39:27;;;;;;;27.92;18.92;;;2.60;99.90;;;;;;5097094;28;20052;-78
2022/11/21 02:42:20;;;;;;;28.80;20.98;;;2.60;99.90;;;;;;5113725;28;20061;-78
2022/11/21 02:45:18;;;;;;;26.98;18.75;;;2.60;99.90;;;;;;5112547;28;20134;-78
2022/11/21 02:47:45;;;;;;;27.35;19.27;;;2.50;99.90;;;;;;5091455;28;20088;-78
2022/11/21 02:50:47;;;;;;;29.00;19.08;;;2.50;99.90;;;;;;5113848;28;20191;-78
2022/11/21 02:53:15;;;;;;;26.80;19.55;;;2.40;99.90;;;;;;5070883;28;20045;-78
2022/11/21 02:55:41;;;;;;;31.50;20.98;;;2.30;99.90;;;;;;5105133;28;20487;-78
2022/11/21 02:58:06;;;;;;;28.30;19.90;;;2.20;99.90;;;;;;5113554;28;20044;-78
2022/11/21 03:00:34;;;;;;;27.30;19.70;;;2.20;99.90;;;;;;5112086;28;20637;-78
2022/11/21 03:02:59;;;;;;;26.17;19.17;;;2.20;99.90;;;;;;5112179;28;20043;-77
2022/11/21 03:05:25;;;;;;;25.87;19.43;;;2.10;99.90;;;;;;5113556;28;20054;-78
2022/11/21 03:07:51;;;;;;;25.73;18.53;;;2.20;99.90;;;;;;5112316;28;20147;-78
2022/11/21 03:10:17;;;;;;;29.70;20.90;;;2.10;99.90;;;;;;5113412;28;20046;-78
2022/11/21 03:12:43;;;;;;;27.07;18.90;;;2.00;99.90;;;;;;5112195;28;20459;-78
2022/11/21 03:15:12;;;;;;;26.95;19.02;;;2.00;99.90;;;;;;5113300;28;20059;-78
2022/11/21 03:17:38;;;;;;;26.73;19.75;;;2.00;99.90;;;;;;5111799;28;20396;-78
2022/11/21 03:20:04;;;;;;;28.45;19.67;;;1.90;99.90;;;;;;5113211;28;20035;-78
2022/11/21 03:22:30;;;;;;;28.55;19.17;;;1.90;99.90;;;;;;5113445;28;20044;-77
2022/11/21 03:24:56;;;;;;;25.87;19.07;;;1.90;99.90;;;;;;5113088;28;20051;-78
2022/11/21 03:27:21;;;;;;;23.37;16.90;;;1.90;99.90;;;;;;5078526;28;20126;-78
2022/11/21 03:29:47;;;;;;;28.50;20.57;;;1.90;99.90;;;;;;5113077;28;20528;-78
2022/11/21 03:32:13;;;;;;;30.30;20.23;;;1.80;99.90;;;;;;5113224;28;20143;-78
2022/11/21 03:34:39;;;;;;;27.95;19.40;;;1.80;99.90;;;;;;5095008;28;20051;-78
2022/11/21 03:37:05;;;;;;;27.47;18.50;;;1.70;99.90;;;;;;5113411;28;20044;-78
2022/11/21 03:39:31;;;;;;;27.67;19.60;;;1.70;99.90;;;;;;5113333;28;20596;-78
2022/11/21 03:41:56;;;;;;;27.50;18.67;;;1.70;99.90;;;;;;5112801;28;20043;-78
2022/11/21 03:44:22;;;;;;;28.60;19.80;;;1.70;99.90;;;;;;5113303;28;20380;-78
2022/11/21 03:46:48;;;;;;;26.47;18.93;;;1.70;99.90;;;;;;5115978;28;20475;-78
2022/11/21 03:49:15;;;;;;;30.33;20.93;;;1.80;99.90;;;;;;5115922;28;20043;-78
2022/11/21 03:51:42;;;;;;;31.95;21.58;;;1.60;99.90;;;;;;5116590;28;20043;-78
2022/11/21 03:54:08;;;;;;;31.40;20.42;;;1.60;99.90;;;;;;5117349;28;20050;-78
2022/11/21 03:56:34;;;;;;;28.42;20.73;;;1.60;99.90;;;;;;5116750;28;20124;-78
2022/11/21 03:59:00;;;;;;;29.17;20.67;;;1.60;99.90;;;;;;5116415;28;20040;-78
2022/11/21 04:01:26;;;;;;;28.88;21.10;;;1.60;99.90;;;;;;5116707;28;20056;-78
2022/11/21 04:03:52;;;;;;;28.20;19.80;;;1.60;99.90;;;;;;5116331;28;20048;-78
2022/11/21 04:06:20;;;;;;;28.75;19.73;;;1.70;99.90;;;;;;5116666;28;20044;-78
2022/11/21 04:08:45;;;;;;;26.77;19.35;;;1.70;99.90;;;;;;5115309;28;20047;-78
2022/11/21 04:11:11;;;;;;;29.17;19.70;;;1.80;99.90;;;;;;5116720;28;20101;-79
2022/11/21 04:13:37;;;;;;;29.17;21.17;;;1.70;99.90;;;;;;5116454;27;20043;-78
2022/11/21 04:16:03;;;;;;;26.27;19.38;;;1.70;99.90;;;;;;5115303;28;20040;-78
2022/11/21 04:18:29;;;;;;;26.60;20.00;;;1.70;99.90;;;;;;5116272;28;20047;-78
2022/11/21 04:20:59;;;;;;;28.07;19.13;;;1.60;99.90;;;;;;5114767;28;20391;-78
2022/11/21 04:23:26;;;;;;;29.00;20.42;;;1.60;99.90;;;;;;5116303;28;20083;-78
2022/11/21 04:25:52;;;;;;;30.48;20.48;;;1.50;99.90;;;;;;5114948;28;20047;-78
2022/11/21 04:28:18;;;;;;;27.63;19.40;;;1.50;99.90;;;;;;5114772;28;20056;-78
2022/11/21 04:30:43;;;;;;;28.53;19.43;;;1.40;99.90;;;;;;5114861;28;20100;-78
2022/11/21 04:33:11;;;;;;;27.57;18.70;;;1.40;99.90;;;;;;5116082;28;20122;-78
2022/11/21 04:35:36;;;;;;;26.55;19.83;;;1.40;99.90;;;;;;5114827;28;20054;-78
2022/11/21 04:38:02;;;;;;;28.10;19.67;;;1.50;99.90;;;;;;5115372;28;20044;-79
2022/11/21 04:40:28;;;;;;;29.50;20.57;;;1.30;99.90;;;;;;5116265;28;20043;-79
2022/11/21 04:42:53;;;;;;;28.93;19.33;;;1.40;99.90;;;;;;5115866;28;20043;-79
2022/11/21 04:45:19;;;;;;;31.20;21.37;;;1.30;99.90;;;;;;5114954;28;20036;-79
2022/11/21 04:47:46;;;;;;;29.77;19.87;;;1.50;99.90;;;;;;5097430;28;20472;-79
2022/11/21 04:50:14;;;;;;;27.70;20.38;;;1.40;99.90;;;;;;5116149;28;20143;-78
2022/11/21 04:52:40;;;;;;;29.42;20.52;;;1.40;99.90;;;;;;5114498;28;20086;-78
2022/11/21 04:55:07;;;;;;;28.00;19.60;;;1.30;99.90;;;;;;5114346;28;20083;-78
2022/11/21 04:57:33;;;;;;;28.15;19.60;;;1.30;99.90;;;;;;5114881;28;20368;-78
2022/11/21 04:59:59;;;;;;;25.77;18.60;;;1.30;99.90;;;;;;5114054;28;20092;-78
2022/11/21 05:02:24;;;;;;;28.43;20.13;;;1.30;99.90;;;;;;5097550;28;20097;-78
2022/11/21 05:04:50;;;;;;;28.20;19.67;;;1.30;99.90;;;;;;5115299;28;20056;-78
2022/11/21 05:07:17;;;;;;;27.93;19.63;;;1.30;99.90;;;;;;5115643;28;20369;-78
2022/11/21 05:09:43;;;;;;;26.45;18.23;;;1.30;99.90;;;;;;5115383;28;20182;-78
2022/11/21 05:14:55;;;;;;;28.40;20.45;;;1.30;99.90;;;;;;5114117;28;20633;-78
2022/11/21 05:17:21;;;;;;;29.17;20.23;;;1.20;99.90;;;;;;5113917;28;20047;-78
2022/11/21 05:19:46;;;;;;;30.37;21.17;;;1.20;99.90;;;;;;5114909;28;20054;-78
2022/11/21 05:22:12;;;;;;;32.67;22.47;;;1.20;99.90;;;;;;5114091;28;20483;-78
2022/11/21 05:24:38;;;;;;;29.58;20.80;;;1.20;99.90;;;;;;5115021;28;20043;-78
2022/11/21 05:27:04;;;;;;;33.60;22.03;;;1.30;99.90;;;;;;5114770;28;20044;-78
2022/11/21 05:29:30;;;;;;;32.53;22.93;;;1.20;99.90;;;;;;5113659;28;20150;-78
2022/11/21 05:31:55;;;;;;;31.90;21.87;;;1.30;99.90;;;;;;5114644;28;20273;-78
2022/11/21 05:34:22;;;;;;;33.53;21.97;;;1.20;99.90;;;;;;5114881;28;20593;-78
2022/11/21 05:36:48;;;;;;;30.77;21.27;;;1.20;99.90;;;;;;5114756;28;20070;-78
2022/11/21 05:39:14;;;;;;;32.28;22.45;;;1.20;99.90;;;;;;5114141;28;20047;-78
2022/11/21 05:41:41;;;;;;;29.27;20.38;;;1.20;99.90;;;;;;5114855;28;20050;-78
2022/11/21 05:44:06;;;;;;;33.83;22.10;;;1.20;99.90;;;;;;5113409;28;20484;-78
2022/11/21 05:46:32;;;;;;;32.00;22.53;;;1.20;99.90;;;;;;5114622;28;20055;-78
2022/11/21 05:48:58;;;;;;;32.40;21.17;;;1.20;99.90;;;;;;5113344;28;20051;-78
2022/11/21 05:51:24;;;;;;;32.93;22.50;;;1.20;99.90;;;;;;5114549;28;20051;-78
2022/11/21 05:53:49;;;;;;;36.07;22.93;;;1.10;99.90;;;;;;5113470;28;20130;-78
2022/11/21 05:56:18;;;;;;;34.50;23.43;;;1.20;99.90;;;;;;5114478;28;20131;-78
2022/11/21 05:58:44;;;;;;;40.88;23.08;;;1.10;99.90;;;;;;5114402;28;20052;-78
2022/11/21 06:01:13;;;;;;;32.08;22.20;;;1.10;99.90;;;;;;5114005;28;20090;-78
2022/11/21 06:03:40;;;;;;;34.40;22.90;;;1.10;99.90;;;;;;5114072;28;20560;-78
2022/11/21 06:06:08;;;;;;;34.63;22.48;;;1.10;99.90;;;;;;5114068;28;20489;-79
2022/11/21 06:08:39;;;;;;;34.22;22.85;;;1.10;99.90;;;;;;5114110;28;20391;-78
2022/11/21 06:11:06;;;;;;;34.15;22.27;;;1.10;99.90;;;;;;5107706;27;20403;-79
2022/11/21 06:13:32;;;;;;;38.08;24.55;;;1.00;99.90;;;;;;5107916;28;20498;-78
2022/11/21 06:15:58;;;;;;;35.22;23.02;;;1.00;99.90;;;;;;5113770;28;20044;-78
2022/11/21 06:18:24;;;;;;;36.10;23.50;;;1.00;99.90;;;;;;5114033;28;20108;-78
2022/11/21 06:20:50;;;;;;;38.40;24.35;;;1.00;99.90;;;;;;5113888;28;20065;-77
2022/11/21 06:23:16;;;;;;;37.17;24.73;;;1.00;99.90;;;;;;5113703;28;20059;-78
2022/11/21 06:25:43;;;;;;;36.83;23.90;;;1.00;99.90;;;;;;5114016;28;20507;-79
2022/11/21 06:28:09;;;;;;;35.45;23.02;;;1.00;99.90;;;;;;5113213;28;20063;-78
2022/11/21 06:30:35;;;;;;;38.05;25.30;;;1.20;99.90;;;;;;5113823;28;20040;-78
2022/11/21 06:33:03;;;;;;;32.67;23.03;;;1.10;99.90;;;;;;5113561;28;20050;-76
2022/11/21 06:35:29;;;;;;;36.03;23.42;;;1.10;99.90;;;;;;5113871;28;20070;-76
2022/11/21 06:37:57;;;;;;;41.20;25.57;;;1.00;99.90;;;;;;5113514;28;20498;-82
2022/11/21 06:40:23;;;;;;;36.90;24.92;;;1.00;99.90;;;;;;5112554;28;20036;-76
2022/11/21 06:42:49;;;;;;;35.28;23.85;;;0.90;99.90;;;;;;5113737;28;20056;-76
2022/11/21 06:45:15;;;;;;;32.37;21.30;;;0.90;99.90;;;;;;5112438;28;20046;-76
2022/11/21 06:47:40;;;;;;;35.53;23.40;;;0.90;99.90;;;;;;5113807;28;20047;-76
2022/11/21 06:50:07;;;;;;;32.77;22.90;;;0.90;99.90;;;;;;5091993;28;20123;-75
2022/11/21 06:52:34;;;;;;;36.00;23.08;;;0.80;99.90;;;;;;5093172;28;20101;-74
2022/11/21 06:54:59;;;;;;;33.65;23.95;;;0.90;99.90;;;;;;5092696;28;20048;-76
2022/11/21 06:57:25;;;;;;;34.23;24.07;;;0.90;99.90;;;;;;5092952;28;20048;-76
2022/11/21 06:59:51;;;;;;;35.77;24.03;;;0.80;99.90;;;;;;5091919;28;20393;-75
2022/11/21 07:02:17;;;;;;;34.53;22.40;;;0.90;99.90;;;;;;5092858;28;20044;-80
2022/11/21 07:04:42;;;;;;;37.27;24.13;;;0.90;99.90;;;;;;5093261;28;20055;-76
2022/11/21 07:07:08;;;;;;;35.47;22.93;;;0.90;99.90;;;;;;5092960;28;20051;-78
2022/11/21 07:09:34;;;;;;;33.63;22.63;;;0.90;99.90;;;;;;5075256;28;20036;-77
2022/11/21 07:13:20;;;;;;;36.38;24.48;;;0.80;99.90;;;;;;5092681;28;20557;-78
2022/11/21 07:14:46;;;;;;;34.70;22.90;;;0.80;99.90;;;;;;5092867;28;20052;-77
2022/11/21 07:17:13;;;;;;;33.60;22.10;;;0.80;99.90;;;;;;5092843;28;20048;-77
2022/11/21 07:19:40;;;;;;;34.33;23.52;;;0.90;99.90;;;;;;5092039;28;20492;-76
2022/11/21 07:22:07;;;;;;;36.03;23.75;;;0.90;99.90;;;;;;5096398;28;20564;-77
2022/11/21 07:24:33;;;;;;;35.95;23.33;;;0.90;99.90;;;;;;5097070;28;20048;-77
2022/11/21 07:26:59;;;;;;;35.40;22.73;;;0.90;99.90;;;;;;5096201;28;20040;-77
2022/11/21 07:29:25;;;;;;;36.08;21.70;;;0.80;99.90;;;;;;5096592;28;20407;-76
2022/11/21 07:31:51;;;;;;;33.27;22.17;;;0.90;99.90;;;;;;5097137;28;20048;-76
2022/11/21 07:34:16;;;;;;;32.47;21.37;;;0.80;99.90;;;;;;5096826;28;20043;-76
2022/11/21 07:36:42;;;;;;;32.97;21.40;;;0.80;99.90;;;;;;5096919;28;20043;-76
2022/11/21 07:39:08;;;;;;;36.77;22.60;;;0.90;99.90;;;;;;5096609;28;20054;-76
2022/11/21 07:41:33;;;;;;;31.10;21.13;;;0.80;99.90;;;;;;5096779;28;20597;-76
2022/11/21 07:43:59;;;;;;;34.87;23.57;;;0.90;99.90;;;;;;5097082;28;20043;-76
2022/11/21 07:46:25;;;;;;;37.57;23.90;;;0.90;99.90;;;;;;5096211;28;20039;-76
2022/11/21 07:48:50;;;;;;;37.27;23.30;;;0.90;99.90;;;;;;5095713;28;20058;-76
2022/11/21 07:51:16;;;;;;;32.07;22.43;;;0.90;99.90;;;;;;5095445;28;20484;-76
2022/11/21 07:53:42;;;;;;;30.17;20.03;;;0.90;99.90;;;;;;5096841;28;20438;-76
2022/11/21 07:56:10;;;;;;;32.63;22.10;;;1.00;99.90;;;;;;5095969;28;20048;-76
2022/11/21 07:58:36;;;;;;;34.15;21.65;;;1.10;99.90;;;;;;5095473;28;20047;-76
2022/11/21 08:01:06;;;;;;;35.50;22.37;;;1.10;99.90;;;;;;5096532;28;20043;-76
2022/11/21 08:03:32;;;;;;;33.40;21.75;;;1.20;99.90;;;;;;5096528;28;20066;-76
2022/11/21 08:06:02;;;;;;;35.03;22.63;;;1.20;99.90;;;;;;5096456;28;20407;-76
2022/11/21 08:08:28;;;;;;;34.45;22.90;;;1.30;99.90;;;;;;5094974;28;20108;-76
2022/11/21 08:10:54;;;;;;;36.83;24.08;;;1.30;99.90;;;;;;5095262;28;20127;-76
2022/11/21 08:13:20;;;;;;;34.50;21.73;;;1.40;99.90;;;;;;5095080;28;20174;-76
2022/11/21 08:15:46;;;;;;;31.10;21.63;;;1.40;99.90;;;;;;5095222;28;20048;-76
2022/11/21 08:18:14;;;;;;;31.67;21.23;;;1.50;99.90;;;;;;5095986;28;20206;-76
2022/11/21 08:20:40;;;;;;;31.95;21.55;;;1.50;99.90;;;;;;5096089;28;20055;-76
2022/11/21 08:23:06;;;;;;;34.72;22.95;;;1.60;99.90;;;;;;5094834;28;20423;-76
2022/11/21 08:25:35;;;;;;;34.63;22.33;;;1.50;99.90;;;;;;5095031;28;20052;-76
2022/11/21 08:28:01;;;;;;;36.20;24.13;;;1.60;99.90;;;;;;5095805;28;20059;-76
2022/11/21 08:30:27;;;;;;;33.70;22.40;;;1.50;99.90;;;;;;5095675;28;20048;-76
2022/11/21 08:32:53;;;;;;;31.83;21.47;;;1.50;99.90;;;;;;5094649;28;20052;-76
2022/11/21 08:35:19;;;;;;;32.90;22.70;;;1.60;99.90;;;;;;5095625;28;20047;-76
2022/11/21 08:37:44;;;;;;;29.37;20.30;;;1.60;99.90;;;;;;5094599;28;20142;-76
2022/11/21 08:40:10;;;;;;;31.23;20.67;;;1.80;99.90;;;;;;5094339;28;20048;-76
2022/11/21 08:42:36;;;;;;;34.17;21.48;;;1.60;99.90;;;;;;5094368;28;20048;-76
2022/11/21 08:45:04;;;;;;;32.35;20.60;;;1.70;99.90;;;;;;5095639;28;20106;-76
2022/11/21 08:47:32;;;;;;;28.88;19.13;;;1.70;99.90;;;;;;5095383;28;20059;-76
2022/11/21 08:49:58;;;;;;;30.08;20.90;;;1.70;99.90;;;;;;5095615;28;20105;-76
2022/11/21 08:52:23;;;;;;;33.93;21.93;;;1.70;99.90;;;;;;5095235;28;20044;-76
2022/11/21 08:54:49;;;;;;;32.73;21.47;;;1.80;99.90;;;;;;5095403;28;20044;-76
2022/11/21 08:57:14;;;;;;;32.23;20.47;;;1.70;99.90;;;;;;5094122;28;20044;-76
2022/11/21 08:59:40;;;;;;;32.20;21.90;;;1.70;99.90;;;;;;5094596;28;20476;-76
2022/11/21 09:02:09;;;;;;;34.13;23.13;;;1.60;99.90;;;;;;5095274;28;20135;-76
2022/11/21 09:04:34;;;;;;;33.15;22.13;;;1.60;99.90;;;;;;5094990;28;20105;-76
2022/11/21 09:07:00;;;;;;;32.03;21.37;;;1.70;99.90;;;;;;5094159;28;20080;-76
2022/11/21 09:09:26;;;;;;;30.38;20.58;;;1.70;99.90;;;;;;5095022;28;20127;-76
2022/11/21 09:11:52;;;;;;;34.93;22.30;;;1.70;99.90;;;;;;5095151;28;20524;-76
2022/11/21 09:19:46;;;;;;;32.47;20.42;;;1.80;99.90;;;;;;5094851;28;20051;-76
2022/11/21 09:22:12;;;;;;;29.97;19.63;;;1.80;99.90;;;;;;5094972;28;20135;-76
2022/11/21 09:24:38;;;;;;;25.37;16.97;;;1.80;99.90;;;;;;5094344;28;20067;-76
2022/11/21 09:27:03;;;;;;;27.53;19.20;;;1.80;99.90;;;;;;5093618;28;20051;-76
2022/11/21 09:29:29;;;;;;;31.57;21.13;;;1.80;99.90;;;;;;5093120;28;20055;-76
2022/11/21 09:31:55;;;;;;;31.97;22.33;;;1.80;99.90;;;;;;5094374;28;20047;-76
2022/11/21 09:34:20;;;;;;;29.23;19.10;;;1.80;99.90;;;;;;5094494;28;20044;-76
2022/11/21 09:36:46;;;;;;;27.30;19.73;;;1.80;99.90;;;;;;5094654;28;20048;-76
2022/11/21 09:39:12;;;;;;;27.37;18.90;;;1.80;99.90;;;;;;5094653;28;20448;-76
2022/11/21 09:41:59;;;;;;;27.30;18.17;;;1.80;99.90;;;;;;5094332;28;20399;-76
2022/11/21 09:44:37;;;;;;;26.50;17.77;;;1.90;99.90;;;;;;5092801;28;20047;-76
2022/11/21 09:47:21;;;;;;;26.05;17.20;;;1.90;99.90;;;;;;5094470;28;20476;-76
2022/11/21 09:49:56;;;;;;;21.80;15.38;;;1.90;99.90;;;;;;5094672;28;20089;-76
2022/11/21 09:52:39;;;;;;;24.65;15.82;;;2.00;99.90;;;;;;5093197;28;20135;-76
2022/11/21 09:55:16;;;;;;;22.38;15.48;;;2.00;99.90;;;;;;5094340;28;20054;-76
2022/11/21 09:57:46;;;;;;;21.65;15.82;;;2.00;99.90;;;;;;5093114;28;20495;-76
2022/11/21 10:00:23;;;;;;;25.38;16.90;;;2.10;99.90;;;;;;5094074;28;20044;-75
2022/11/21 10:02:50;;;;;;;29.20;19.25;;;2.20;99.90;;;;;;5094197;28;20055;-76
2022/11/21 10:05:29;;;;;;;27.40;17.80;;;2.20;99.90;;;;;;5093122;28;20475;-76
2022/11/21 10:08:01;;;;;;;24.10;16.77;;;2.10;99.90;;;;;;5094138;28;20051;-76
2022/11/21 10:10:30;;;;;;;25.75;17.67;;;2.10;99.90;;;;;;5093889;28;20040;-76
2022/11/21 10:13:02;;;;;;;23.20;16.52;;;2.20;99.90;;;;;;5092977;28;20056;-76
2022/11/21 10:15:39;;;;;;;20.00;15.45;;;2.20;99.90;;;;;;5093636;28;20044;-76
2022/11/21 10:18:28;;;;;;;24.15;16.75;;;2.20;99.90;;;;;;5094191;28;20058;-76
2022/11/21 10:21:12;;;;;;;22.30;15.70;;;2.20;99.90;;;;;;5093697;28;20464;-76
2022/11/21 10:23:48;;;;;;;24.60;13.27;;;2.10;99.90;;;;;;5093674;28;20113;-76
2022/11/21 10:26:36;;;;;;;21.05;15.68;;;2.20;99.90;;;;;;5093792;28;20052;-76
2022/11/21 10:29:11;;;;;;;20.70;15.13;;;2.20;99.90;;;;;;5089043;28;20052;-76
2022/11/21 10:31:39;;;;;;;20.08;14.63;;;2.30;99.90;;;;;;5092546;28;20055;-76
2022/11/21 10:34:19;;;;;;;21.65;15.60;;;2.30;99.90;;;;;;5092666;28;20498;-76
2022/11/21 10:36:51;;;;;;;20.05;15.07;;;2.40;99.90;;;;;;5093451;28;20452;-76
2022/11/21 10:39:44;;;;;;;22.30;15.63;;;2.50;99.90;;;;;;5092768;28;20052;-76
2022/11/21 10:42:33;;;;;;;21.48;15.60;;;2.60;99.90;;;;;;5087914;28;20060;-76
2022/11/21 10:45:16;;;;;;;19.95;14.05;;;2.60;99.90;;;;;;5092285;28;20050;-76
2022/11/21 10:47:43;;;;;;;22.40;14.05;;;2.70;99.90;;;;;;5092453;28;20083;-76
2022/11/21 10:50:37;;;;;;;18.10;13.50;;;2.70;99.90;;;;;;5093136;28;20069;-76
2022/11/21 10:56:06;;;;;;;18.52;14.30;;;2.90;99.90;;;;;;5092605;28;20052;-76
2022/11/21 10:58:46;;;;;;;19.40;14.70;;;3.00;99.90;;;;;;5093240;28;20048;-76
2022/11/21 11:01:34;;;;;;;18.90;13.38;;;3.00;99.90;;;;;;5093459;28;20051;-76
2022/11/21 11:04:10;;;;;;;17.33;13.20;;;3.10;99.90;;;;;;5093578;28;20369;-76
2022/11/21 11:06:41;;;;;;;20.33;14.20;;;3.10;99.90;;;;;;5092053;28;20113;-76
2022/11/21 11:09:20;;;;;;;20.25;13.90;;;3.20;99.90;;;;;;5092927;28;20541;-76
2022/11/21 11:11:46;;;;;;;17.00;12.73;;;3.20;99.90;;;;;;5093080;28;20051;-76
2022/11/21 11:14:13;;;;;;;17.97;13.20;;;3.20;99.90;;;;;;5091953;28;20036;-76
2022/11/21 11:16:44;;;;;;;16.60;12.95;;;3.30;99.90;;;;;;5092958;28;20047;-76
2022/11/21 11:19:13;;;;;;;15.25;12.07;;;3.40;99.90;;;;;;5093268;28;20089;-76
2022/11/21 11:21:39;;;;;;;16.60;12.88;;;3.40;99.90;;;;;;5092879;28;20048;-76
2022/11/21 11:24:08;;;;;;;14.93;12.00;;;3.50;99.90;;;;;;5093098;28;20083;-76
2022/11/21 11:26:54;;;;;;;18.67;13.50;;;3.50;99.90;;;;;;5092866;28;20051;-76
2022/11/21 11:29:29;;;;;;;16.38;12.65;;;3.60;99.90;;;;;;5088944;28;20047;-76
2022/11/21 11:31:56;;;;;;;16.60;12.32;;;3.60;99.90;;;;;;5093105;28;20128;-76
2022/11/21 11:34:38;;;;;;;16.25;11.95;;;3.70;99.90;;;;;;5093012;28;20082;-76
2022/11/21 11:37:22;;;;;;;16.20;12.00;;;3.70;99.90;;;;;;5092357;28;20097;-76
2022/11/21 11:40:13;;;;;;;14.65;11.20;;;3.80;99.90;;;;;;5092774;28;20040;-76
2022/11/21 11:49:04;;;;;;;12.50;9.52;;;4.00;99.90;;;;;;5092944;28;20540;-76
2022/11/21 11:51:41;;;;;;;12.40;9.38;;;4.00;99.90;;;;;;5091669;28;20043;-76
2022/11/21 11:54:22;;;;;;;13.00;8.52;;;4.00;99.90;;;;;;5092836;28;20052;-76
2022/11/21 11:56:48;;;;;;;12.10;8.73;;;4.10;99.90;;;;;;5091716;28;20051;-76
2022/11/21 11:59:22;;;;;;;12.43;9.23;;;4.10;99.90;;;;;;5092979;28;20091;-76
2022/11/21 12:02:00;;;;;;;12.32;9.52;;;4.10;99.90;;;;;;5092333;28;20403;-76
2022/11/21 12:04:32;;;;;;;13.10;10.30;;;4.10;99.90;;;;;;5093007;28;20052;-76
2022/11/21 12:07:05;;;;;;;14.02;11.18;;;4.10;99.90;;;;;;5076691;28;20051;-76
2022/11/21 12:10:08;;;;;;;11.77;8.90;;;4.10;99.90;;;;;;5096475;28;20044;-76
2022/11/21 12:12:49;;;;;;;13.93;10.80;;;4.10;99.90;;;;;;5095390;28;20499;-76
2022/11/21 12:18:10;;;;;;;12.75;9.85;;;4.20;99.90;;;;;;5095936;28;20542;-76
2022/11/21 12:20:49;;;;;;;13.60;10.70;;;4.20;99.90;;;;;;5095971;28;20131;-76
2022/11/21 12:23:17;;;;;;;13.90;10.27;;;4.20;99.90;;;;;;5095014;28;20048;-76
2022/11/21 12:26:26;;;;;;;12.50;9.68;;;4.30;99.90;;;;;;5095823;28;20048;-76
2022/11/21 12:29:42;;;;;;;12.32;9.73;;;4.30;99.90;;;;;;5094658;28;20052;-76
2022/11/21 12:32:39;;;;;;;12.60;9.07;;;4.40;99.90;;;;;;5072375;28;20143;-76
2022/11/21 12:35:07;;;;;;;12.93;9.80;;;4.50;99.90;;;;;;5095928;28;20075;-76
2022/11/21 12:37:50;;;;;;;12.07;9.32;;;4.50;99.90;;;;;;5095942;28;20399;-76
2022/11/21 12:40:35;;;;;;;13.70;9.77;;;4.50;99.90;;;;;;5095727;28;20044;-76
2022/11/21 12:43:18;;;;;;;11.63;8.85;;;4.50;99.90;;;;;;5094554;28;20480;-76
2022/11/21 12:45:59;;;;;;;12.40;9.32;;;4.50;99.90;;;;;;5095399;28;20132;-76
2022/11/21 12:55:08;;;;;;;11.70;9.60;;;4.50;99.90;;;;;;5095329;28;20135;-76
2022/11/21 12:58:02;;;;;;;13.68;10.05;;;4.60;99.90;;;;;;5077857;28;20059;-76
2022/11/21 13:00:42;;;;;;;14.77;11.88;;;4.60;99.90;;;;;;5095335;28;20055;-76
2022/11/21 13:03:38;;;;;;;15.32;10.82;;;4.60;99.90;;;;;;5095467;28;20040;-76
2022/11/21 13:06:11;;;;;;;14.57;11.57;;;4.60;99.90;;;;;;5095674;28;20059;-76
2022/11/21 13:08:38;;;;;;;15.77;12.27;;;4.60;99.90;;;;;;5094430;28;20483;-76
2022/11/21 13:14:26;;;;;;;16.17;11.57;;;4.70;99.90;;;;;;5094849;28;20488;-76
2022/11/21 13:16:57;;;;;;;16.92;12.90;;;4.70;99.90;;;;;;5094929;28;20040;-76
2022/11/21 13:19:36;;;;;;;16.85;12.43;;;4.70;99.90;;;;;;5094201;28;20055;-76
2022/11/21 13:22:02;;;;;;;18.23;14.02;;;4.70;99.90;;;;;;5093469;28;20137;-76